sensor_id;sensor_type;location;lat;lon;timestamp;P1;durP1;ratioP1;P2;durP2;ratioP2
49123;SDS011;48506;48.202;16.274;2023-05-16T00:00:21;2.40;;;1.80;;
49123;SDS011;48506;48.202;16.274;2023-05-16T00:02:49;2.03;;;1.83;;
49123;SDS011;48506;48.202;16.274;2023-05-16T00:05:16;2.45;;;1.90;;
49123;SDS011;48506;48.202;16.274;2023-05-16T00:07:42;2.45;;;2.25;;
49123;SDS011;48506;48.202;16.274;2023-05-16T00:10:10;2.47;;;2.10;;
49123;SDS011;48506;48.202;16.274;2023-05-16T00:12:36;3.63;;;2.03;;
49123;SDS011;48506;48.202;16.274;2023-05-16T00:15:04;2.17;;;1.98;;
49123;SDS011;48506;48.202;16.274;2023-05-16T00:17:33;2.00;;;1.80;;
49123;SDS011;48506;48.202;16.274;2023-05-16T00:19:59;2.25;;;2.05;;
49123;SDS011;48506;48.202;16.274;2023-05-16T00:22:35;2.80;;;2.33;;
49123;SDS011;48506;48.202;16.274;2023-05-16T00:25:02;2.88;;;1.83;;
49123;SDS011;48506;48.202;16.274;2023-05-16T00:27:28;3.42;;;2.05;;
49123;SDS011;48506;48.202;16.274;2023-05-16T00:29:54;2.08;;;1.88;;
49123;SDS011;48506;48.202;16.274;2023-05-16T00:32:20;4.50;;;2.33;;
49123;SDS011;48506;48.202;16.274;2023-05-16T00:34:46;2.85;;;2.15;;
49123;SDS011;48506;48.202;16.274;2023-05-16T00:37:12;4.32;;;2.00;;
49123;SDS011;48506;48.202;16.274;2023-05-16T00:39:39;3.47;;;2.55;;
49123;SDS011;48506;48.202;16.274;2023-05-16T00:42:05;3.65;;;2.28;;
49123;SDS011;48506;48.202;16.274;2023-05-16T00:44:32;3.35;;;1.80;;
49123;SDS011;48506;48.202;16.274;2023-05-16T00:46:58;2.47;;;2.28;;
49123;SDS011;48506;48.202;16.274;2023-05-16T00:49:25;2.75;;;1.90;;
49123;SDS011;48506;48.202;16.274;2023-05-16T00:51:51;2.72;;;2.05;;
49123;SDS011;48506;48.202;16.274;2023-05-16T00:54:19;2.38;;;2.08;;
49123;SDS011;48506;48.202;16.274;2023-05-16T00:56:47;1.65;;;1.55;;
49123;SDS011;48506;48.202;16.274;2023-05-16T00:59:14;2.38;;;1.98;;
49123;SDS011;48506;48.202;16.274;2023-05-16T01:01:40;2.58;;;1.63;;
49123;SDS011;48506;48.202;16.274;2023-05-16T01:04:09;3.10;;;2.53;;
49123;SDS011;48506;48.202;16.274;2023-05-16T01:06:34;4.07;;;2.97;;
49123;SDS011;48506;48.202;16.274;2023-05-16T01:09:01;3.78;;;2.28;;
49123;SDS011;48506;48.202;16.274;2023-05-16T01:11:29;3.17;;;2.33;;
49123;SDS011;48506;48.202;16.274;2023-05-16T01:14:08;4.53;;;1.92;;
49123;SDS011;48506;48.202;16.274;2023-05-16T01:16:52;2.35;;;2.15;;
49123;SDS011;48506;48.202;16.274;2023-05-16T01:28:03;2.63;;;2.22;;
49123;SDS011;48506;48.202;16.274;2023-05-16T01:30:34;2.58;;;2.38;;
49123;SDS011;48506;48.202;16.274;2023-05-16T01:33:03;5.93;;;2.80;;
49123;SDS011;48506;48.202;16.274;2023-05-16T01:35:29;3.33;;;1.92;;
49123;SDS011;48506;48.202;16.274;2023-05-16T01:38:03;2.20;;;2.00;;
49123;SDS011;48506;48.202;16.274;2023-05-16T01:40:58;3.15;;;2.08;;
49123;SDS011;48506;48.202;16.274;2023-05-16T01:43:33;2.08;;;1.90;;
49123;SDS011;48506;48.202;16.274;2023-05-16T01:46:03;2.38;;;2.17;;
49123;SDS011;48506;48.202;16.274;2023-05-16T01:51:23;2.28;;;2.03;;
49123;SDS011;48506;48.202;16.274;2023-05-16T01:53:52;2.28;;;2.08;;
49123;SDS011;48506;48.202;16.274;2023-05-16T01:56:22;2.40;;;2.20;;
49123;SDS011;48506;48.202;16.274;2023-05-16T01:58:51;2.97;;;2.22;;
49123;SDS011;48506;48.202;16.274;2023-05-16T02:01:18;3.28;;;2.22;;
49123;SDS011;48506;48.202;16.274;2023-05-16T02:03:44;3.10;;;2.30;;
49123;SDS011;48506;48.202;16.274;2023-05-16T02:06:10;3.55;;;2.90;;
49123;SDS011;48506;48.202;16.274;2023-05-16T02:08:36;3.53;;;2.28;;
49123;SDS011;48506;48.202;16.274;2023-05-16T02:11:02;3.08;;;2.50;;
49123;SDS011;48506;48.202;16.274;2023-05-16T02:13:27;3.35;;;2.60;;
49123;SDS011;48506;48.202;16.274;2023-05-16T02:15:53;2.58;;;2.38;;
49123;SDS011;48506;48.202;16.274;2023-05-16T02:18:19;3.85;;;2.20;;
49123;SDS011;48506;48.202;16.274;2023-05-16T02:20:48;2.50;;;2.10;;
49123;SDS011;48506;48.202;16.274;2023-05-16T02:23:15;3.85;;;2.45;;
49123;SDS011;48506;48.202;16.274;2023-05-16T02:25:40;3.67;;;2.55;;
49123;SDS011;48506;48.202;16.274;2023-05-16T02:28:06;3.78;;;2.40;;
49123;SDS011;48506;48.202;16.274;2023-05-16T02:30:32;3.85;;;2.08;;
49123;SDS011;48506;48.202;16.274;2023-05-16T02:32:58;3.78;;;2.45;;
49123;SDS011;48506;48.202;16.274;2023-05-16T02:35:24;2.50;;;2.30;;
49123;SDS011;48506;48.202;16.274;2023-05-16T02:37:50;3.88;;;2.25;;
49123;SDS011;48506;48.202;16.274;2023-05-16T02:40:16;3.92;;;2.30;;
49123;SDS011;48506;48.202;16.274;2023-05-16T02:42:42;4.80;;;2.50;;
49123;SDS011;48506;48.202;16.274;2023-05-16T02:45:08;2.88;;;2.40;;
49123;SDS011;48506;48.202;16.274;2023-05-16T02:47:34;5.35;;;2.50;;
49123;SDS011;48506;48.202;16.274;2023-05-16T02:50:00;2.78;;;2.58;;
49123;SDS011;48506;48.202;16.274;2023-05-16T02:52:28;2.78;;;2.10;;
49123;SDS011;48506;48.202;16.274;2023-05-16T02:54:53;3.20;;;2.60;;
49123;SDS011;48506;48.202;16.274;2023-05-16T02:57:20;3.38;;;2.97;;
49123;SDS011;48506;48.202;16.274;2023-05-16T02:59:45;6.95;;;2.78;;
49123;SDS011;48506;48.202;16.274;2023-05-16T03:02:11;2.70;;;2.33;;
49123;SDS011;48506;48.202;16.274;2023-05-16T03:04:37;3.35;;;2.30;;
49123;SDS011;48506;48.202;16.274;2023-05-16T03:07:03;4.22;;;2.58;;
49123;SDS011;48506;48.202;16.274;2023-05-16T03:09:29;4.35;;;3.08;;
49123;SDS011;48506;48.202;16.274;2023-05-16T03:11:55;2.78;;;2.47;;
49123;SDS011;48506;48.202;16.274;2023-05-16T03:14:21;4.60;;;2.45;;
49123;SDS011;48506;48.202;16.274;2023-05-16T03:16:47;4.40;;;2.85;;
49123;SDS011;48506;48.202;16.274;2023-05-16T03:19:13;3.53;;;2.78;;
49123;SDS011;48506;48.202;16.274;2023-05-16T03:21:39;3.90;;;2.65;;
49123;SDS011;48506;48.202;16.274;2023-05-16T03:24:05;4.90;;;3.38;;
49123;SDS011;48506;48.202;16.274;2023-05-16T03:26:32;4.40;;;2.40;;
49123;SDS011;48506;48.202;16.274;2023-05-16T03:28:58;3.70;;;2.60;;
49123;SDS011;48506;48.202;16.274;2023-05-16T03:31:24;5.20;;;2.33;;
49123;SDS011;48506;48.202;16.274;2023-05-16T03:33:50;4.65;;;2.47;;
49123;SDS011;48506;48.202;16.274;2023-05-16T03:36:15;2.67;;;2.20;;
49123;SDS011;48506;48.202;16.274;2023-05-16T03:38:42;5.03;;;2.53;;
49123;SDS011;48506;48.202;16.274;2023-05-16T03:41:07;2.28;;;2.08;;
49123;SDS011;48506;48.202;16.274;2023-05-16T03:43:33;5.72;;;2.58;;
49123;SDS011;48506;48.202;16.274;2023-05-16T03:46:02;4.65;;;2.30;;
49123;SDS011;48506;48.202;16.274;2023-05-16T03:48:28;3.42;;;2.05;;
49123;SDS011;48506;48.202;16.274;2023-05-16T03:50:54;2.38;;;2.17;;
49123;SDS011;48506;48.202;16.274;2023-05-16T03:53:20;3.65;;;1.90;;
49123;SDS011;48506;48.202;16.274;2023-05-16T03:55:46;3.60;;;2.70;;
49123;SDS011;48506;48.202;16.274;2023-05-16T03:58:12;2.80;;;2.35;;
49123;SDS011;48506;48.202;16.274;2023-05-16T04:00:38;2.53;;;2.28;;
49123;SDS011;48506;48.202;16.274;2023-05-16T04:03:04;5.15;;;2.50;;
49123;SDS011;48506;48.202;16.274;2023-05-16T04:05:29;2.80;;;2.33;;
49123;SDS011;48506;48.202;16.274;2023-05-16T04:07:55;3.03;;;2.15;;
49123;SDS011;48506;48.202;16.274;2023-05-16T04:10:21;2.45;;;2.10;;
49123;SDS011;48506;48.202;16.274;2023-05-16T04:12:47;2.47;;;2.17;;
49123;SDS011;48506;48.202;16.274;2023-05-16T04:15:13;3.10;;;2.33;;
49123;SDS011;48506;48.202;16.274;2023-05-16T04:17:39;5.47;;;2.17;;
49123;SDS011;48506;48.202;16.274;2023-05-16T04:20:05;3.22;;;2.63;;
49123;SDS011;48506;48.202;16.274;2023-05-16T04:22:31;4.45;;;2.10;;
49123;SDS011;48506;48.202;16.274;2023-05-16T04:24:57;3.20;;;2.50;;
49123;SDS011;48506;48.202;16.274;2023-05-16T04:27:23;3.78;;;2.38;;
49123;SDS011;48506;48.202;16.274;2023-05-16T04:29:51;3.20;;;2.88;;
49123;SDS011;48506;48.202;16.274;2023-05-16T04:32:17;2.90;;;1.98;;
49123;SDS011;48506;48.202;16.274;2023-05-16T04:34:44;2.92;;;2.55;;
49123;SDS011;48506;48.202;16.274;2023-05-16T04:37:12;4.80;;;2.35;;
49123;SDS011;48506;48.202;16.274;2023-05-16T04:39:38;7.78;;;2.30;;
49123;SDS011;48506;48.202;16.274;2023-05-16T04:42:04;3.10;;;2.22;;
49123;SDS011;48506;48.202;16.274;2023-05-16T04:44:30;3.20;;;2.65;;
49123;SDS011;48506;48.202;16.274;2023-05-16T04:46:56;4.53;;;2.45;;
49123;SDS011;48506;48.202;16.274;2023-05-16T04:49:22;4.00;;;3.25;;
49123;SDS011;48506;48.202;16.274;2023-05-16T04:51:48;3.88;;;2.50;;
49123;SDS011;48506;48.202;16.274;2023-05-16T04:54:14;3.55;;;2.92;;
49123;SDS011;48506;48.202;16.274;2023-05-16T04:56:40;2.65;;;2.40;;
49123;SDS011;48506;48.202;16.274;2023-05-16T04:59:06;6.07;;;2.92;;
49123;SDS011;48506;48.202;16.274;2023-05-16T05:01:32;3.78;;;2.92;;
49123;SDS011;48506;48.202;16.274;2023-05-16T05:03:58;4.38;;;2.88;;
49123;SDS011;48506;48.202;16.274;2023-05-16T05:06:24;3.92;;;2.80;;
49123;SDS011;48506;48.202;16.274;2023-05-16T05:08:50;3.13;;;2.60;;
49123;SDS011;48506;48.202;16.274;2023-05-16T05:11:18;5.65;;;3.25;;
49123;SDS011;48506;48.202;16.274;2023-05-16T05:13:45;4.90;;;3.08;;
49123;SDS011;48506;48.202;16.274;2023-05-16T05:16:11;3.97;;;2.92;;
49123;SDS011;48506;48.202;16.274;2023-05-16T05:18:37;5.22;;;3.20;;
49123;SDS011;48506;48.202;16.274;2023-05-16T05:21:03;5.68;;;3.10;;
49123;SDS011;48506;48.202;16.274;2023-05-16T05:23:29;4.60;;;3.25;;
49123;SDS011;48506;48.202;16.274;2023-05-16T05:25:55;3.90;;;2.75;;
49123;SDS011;48506;48.202;16.274;2023-05-16T05:28:21;3.33;;;2.78;;
49123;SDS011;48506;48.202;16.274;2023-05-16T05:30:47;4.70;;;3.28;;
49123;SDS011;48506;48.202;16.274;2023-05-16T05:33:14;4.95;;;2.95;;
49123;SDS011;48506;48.202;16.274;2023-05-16T05:35:43;5.18;;;2.85;;
49123;SDS011;48506;48.202;16.274;2023-05-16T05:38:09;4.53;;;2.92;;
49123;SDS011;48506;48.202;16.274;2023-05-16T05:40:35;3.90;;;3.03;;
49123;SDS011;48506;48.202;16.274;2023-05-16T05:43:01;3.67;;;3.00;;
49123;SDS011;48506;48.202;16.274;2023-05-16T05:45:27;8.15;;;3.45;;
49123;SDS011;48506;48.202;16.274;2023-05-16T05:47:53;54.80;;;13.13;;
49123;SDS011;48506;48.202;16.274;2023-05-16T05:50:19;28.50;;;9.10;;
49123;SDS011;48506;48.202;16.274;2023-05-16T05:52:45;9.70;;;4.05;;
49123;SDS011;48506;48.202;16.274;2023-05-16T05:55:11;5.65;;;3.55;;
49123;SDS011;48506;48.202;16.274;2023-05-16T05:57:37;6.68;;;3.55;;
49123;SDS011;48506;48.202;16.274;2023-05-16T06:00:04;6.70;;;4.20;;
49123;SDS011;48506;48.202;16.274;2023-05-16T06:02:31;6.85;;;3.72;;
49123;SDS011;48506;48.202;16.274;2023-05-16T06:04:57;5.88;;;3.60;;
49123;SDS011;48506;48.202;16.274;2023-05-16T06:07:23;6.38;;;3.67;;
49123;SDS011;48506;48.202;16.274;2023-05-16T06:09:49;5.10;;;2.78;;
49123;SDS011;48506;48.202;16.274;2023-05-16T06:12:15;4.88;;;2.60;;
49123;SDS011;48506;48.202;16.274;2023-05-16T06:14:41;4.85;;;3.78;;
49123;SDS011;48506;48.202;16.274;2023-05-16T06:17:07;4.72;;;2.63;;
49123;SDS011;48506;48.202;16.274;2023-05-16T06:19:33;3.95;;;2.85;;
49123;SDS011;48506;48.202;16.274;2023-05-16T06:21:59;6.60;;;3.08;;
49123;SDS011;48506;48.202;16.274;2023-05-16T06:24:25;6.78;;;3.53;;
49123;SDS011;48506;48.202;16.274;2023-05-16T06:26:51;5.97;;;3.28;;
49123;SDS011;48506;48.202;16.274;2023-05-16T06:29:16;6.20;;;3.28;;
49123;SDS011;48506;48.202;16.274;2023-05-16T06:31:43;5.00;;;3.20;;
49123;SDS011;48506;48.202;16.274;2023-05-16T06:34:11;6.22;;;3.65;;
49123;SDS011;48506;48.202;16.274;2023-05-16T06:36:37;6.07;;;3.08;;
49123;SDS011;48506;48.202;16.274;2023-05-16T06:39:03;4.18;;;3.15;;
49123;SDS011;48506;48.202;16.274;2023-05-16T06:41:29;5.13;;;3.05;;
49123;SDS011;48506;48.202;16.274;2023-05-16T06:43:55;3.75;;;2.80;;
49123;SDS011;48506;48.202;16.274;2023-05-16T06:46:21;4.55;;;3.05;;
49123;SDS011;48506;48.202;16.274;2023-05-16T06:48:47;10.75;;;3.08;;
49123;SDS011;48506;48.202;16.274;2023-05-16T06:51:13;7.13;;;3.13;;
49123;SDS011;48506;48.202;16.274;2023-05-16T06:53:40;3.30;;;3.00;;
49123;SDS011;48506;48.202;16.274;2023-05-16T06:56:06;3.30;;;2.95;;
49123;SDS011;48506;48.202;16.274;2023-05-16T06:58:31;4.40;;;2.70;;
49123;SDS011;48506;48.202;16.274;2023-05-16T07:00:57;4.50;;;3.00;;
49123;SDS011;48506;48.202;16.274;2023-05-16T07:03:23;4.05;;;3.00;;
49123;SDS011;48506;48.202;16.274;2023-05-16T07:05:50;5.28;;;3.50;;
49123;SDS011;48506;48.202;16.274;2023-05-16T07:08:17;4.53;;;3.00;;
49123;SDS011;48506;48.202;16.274;2023-05-16T07:10:43;3.75;;;2.88;;
49123;SDS011;48506;48.202;16.274;2023-05-16T07:13:09;5.25;;;3.15;;
49123;SDS011;48506;48.202;16.274;2023-05-16T07:15:35;5.95;;;3.30;;
49123;SDS011;48506;48.202;16.274;2023-05-16T07:18:01;3.75;;;3.38;;
49123;SDS011;48506;48.202;16.274;2023-05-16T07:20:27;3.97;;;3.10;;
49123;SDS011;48506;48.202;16.274;2023-05-16T07:22:53;5.70;;;3.78;;
49123;SDS011;48506;48.202;16.274;2023-05-16T07:25:22;5.05;;;3.38;;
49123;SDS011;48506;48.202;16.274;2023-05-16T07:27:48;3.60;;;3.13;;
49123;SDS011;48506;48.202;16.274;2023-05-16T07:30:15;4.32;;;3.40;;
49123;SDS011;48506;48.202;16.274;2023-05-16T07:32:41;4.30;;;3.42;;
49123;SDS011;48506;48.202;16.274;2023-05-16T07:35:08;4.28;;;3.53;;
49123;SDS011;48506;48.202;16.274;2023-05-16T07:37:34;4.72;;;3.53;;
49123;SDS011;48506;48.202;16.274;2023-05-16T07:40:00;4.57;;;2.83;;
49123;SDS011;48506;48.202;16.274;2023-05-16T07:42:27;3.95;;;3.55;;
49123;SDS011;48506;48.202;16.274;2023-05-16T07:44:53;4.45;;;3.53;;
49123;SDS011;48506;48.202;16.274;2023-05-16T07:47:19;5.68;;;3.38;;
49123;SDS011;48506;48.202;16.274;2023-05-16T07:49:45;6.25;;;3.92;;
49123;SDS011;48506;48.202;16.274;2023-05-16T07:52:11;5.55;;;3.60;;
49123;SDS011;48506;48.202;16.274;2023-05-16T07:54:37;5.25;;;3.50;;
49123;SDS011;48506;48.202;16.274;2023-05-16T07:57:03;5.32;;;4.35;;
49123;SDS011;48506;48.202;16.274;2023-05-16T07:59:29;9.18;;;4.47;;
49123;SDS011;48506;48.202;16.274;2023-05-16T08:01:55;4.47;;;4.05;;
49123;SDS011;48506;48.202;16.274;2023-05-16T08:04:21;9.13;;;4.40;;
49123;SDS011;48506;48.202;16.274;2023-05-16T08:06:47;5.75;;;4.68;;
49123;SDS011;48506;48.202;16.274;2023-05-16T08:09:13;8.35;;;4.47;;
49123;SDS011;48506;48.202;16.274;2023-05-16T08:11:39;6.30;;;4.25;;
49123;SDS011;48506;48.202;16.274;2023-05-16T08:14:05;6.60;;;5.20;;
49123;SDS011;48506;48.202;16.274;2023-05-16T08:16:31;8.90;;;5.63;;
49123;SDS011;48506;48.202;16.274;2023-05-16T08:18:57;13.48;;;5.70;;
49123;SDS011;48506;48.202;16.274;2023-05-16T08:21:23;7.78;;;5.35;;
49123;SDS011;48506;48.202;16.274;2023-05-16T08:23:49;9.40;;;5.85;;
49123;SDS011;48506;48.202;16.274;2023-05-16T08:26:15;7.95;;;6.10;;
49123;SDS011;48506;48.202;16.274;2023-05-16T08:28:42;8.25;;;6.40;;
49123;SDS011;48506;48.202;16.274;2023-05-16T08:31:08;7.05;;;6.03;;
49123;SDS011;48506;48.202;16.274;2023-05-16T08:33:34;6.25;;;5.65;;
49123;SDS011;48506;48.202;16.274;2023-05-16T08:36:00;11.32;;;6.60;;
49123;SDS011;48506;48.202;16.274;2023-05-16T08:38:26;8.60;;;7.53;;
49123;SDS011;48506;48.202;16.274;2023-05-16T08:40:52;9.02;;;6.53;;
49123;SDS011;48506;48.202;16.274;2023-05-16T08:43:18;8.13;;;6.72;;
49123;SDS011;48506;48.202;16.274;2023-05-16T08:45:44;11.80;;;7.55;;
49123;SDS011;48506;48.202;16.274;2023-05-16T08:48:10;9.23;;;7.50;;
49123;SDS011;48506;48.202;16.274;2023-05-16T08:50:36;12.88;;;7.60;;
49123;SDS011;48506;48.202;16.274;2023-05-16T08:53:04;10.77;;;7.95;;
49123;SDS011;48506;48.202;16.274;2023-05-16T08:55:32;10.33;;;8.60;;
49123;SDS011;48506;48.202;16.274;2023-05-16T08:57:59;10.88;;;8.20;;
49123;SDS011;48506;48.202;16.274;2023-05-16T09:00:26;11.48;;;8.95;;
49123;SDS011;48506;48.202;16.274;2023-05-16T09:02:52;12.48;;;7.47;;
49123;SDS011;48506;48.202;16.274;2023-05-16T09:05:20;11.52;;;8.50;;
49123;SDS011;48506;48.202;16.274;2023-05-16T09:07:48;12.10;;;8.98;;
49123;SDS011;48506;48.202;16.274;2023-05-16T09:10:15;12.25;;;8.93;;
49123;SDS011;48506;48.202;16.274;2023-05-16T09:12:41;12.02;;;8.75;;
49123;SDS011;48506;48.202;16.274;2023-05-16T09:15:08;18.23;;;10.07;;
49123;SDS011;48506;48.202;16.274;2023-05-16T09:17:38;11.82;;;8.93;;
49123;SDS011;48506;48.202;16.274;2023-05-16T09:20:12;13.40;;;9.23;;
49123;SDS011;48506;48.202;16.274;2023-05-16T09:25:18;14.38;;;10.40;;
49123;SDS011;48506;48.202;16.274;2023-05-16T09:27:45;15.40;;;10.50;;
49123;SDS011;48506;48.202;16.274;2023-05-16T09:30:15;16.65;;;10.50;;
49123;SDS011;48506;48.202;16.274;2023-05-16T09:32:45;13.07;;;9.48;;
49123;SDS011;48506;48.202;16.274;2023-05-16T09:35:14;14.85;;;10.18;;
49123;SDS011;48506;48.202;16.274;2023-05-16T09:37:44;16.98;;;10.63;;
49123;SDS011;48506;48.202;16.274;2023-05-16T09:40:11;17.52;;;11.43;;
49123;SDS011;48506;48.202;16.274;2023-05-16T09:42:38;17.17;;;11.07;;
49123;SDS011;48506;48.202;16.274;2023-05-16T09:45:04;18.63;;;12.05;;
49123;SDS011;48506;48.202;16.274;2023-05-16T09:47:30;18.40;;;12.07;;
49123;SDS011;48506;48.202;16.274;2023-05-16T09:49:56;21.90;;;13.43;;
49123;SDS011;48506;48.202;16.274;2023-05-16T09:52:26;16.85;;;12.63;;
49123;SDS011;48506;48.202;16.274;2023-05-16T09:54:53;17.58;;;12.10;;
49123;SDS011;48506;48.202;16.274;2023-05-16T09:57:19;16.52;;;11.57;;
49123;SDS011;48506;48.202;16.274;2023-05-16T09:59:47;15.18;;;11.52;;
49123;SDS011;48506;48.202;16.274;2023-05-16T10:02:14;19.60;;;12.82;;
49123;SDS011;48506;48.202;16.274;2023-05-16T10:04:41;27.75;;;15.60;;
49123;SDS011;48506;48.202;16.274;2023-05-16T10:07:06;17.15;;;12.77;;
49123;SDS011;48506;48.202;16.274;2023-05-16T10:09:34;21.52;;;13.48;;
49123;SDS011;48506;48.202;16.274;2023-05-16T10:12:01;20.75;;;13.50;;
49123;SDS011;48506;48.202;16.274;2023-05-16T10:14:33;18.17;;;12.77;;
49123;SDS011;48506;48.202;16.274;2023-05-16T10:17:03;20.08;;;13.25;;
49123;SDS011;48506;48.202;16.274;2023-05-16T10:19:35;23.77;;;13.40;;
49123;SDS011;48506;48.202;16.274;2023-05-16T10:22:03;17.98;;;12.65;;
49123;SDS011;48506;48.202;16.274;2023-05-16T10:24:36;18.38;;;13.35;;
49123;SDS011;48506;48.202;16.274;2023-05-16T10:27:08;20.80;;;12.95;;
49123;SDS011;48506;48.202;16.274;2023-05-16T10:29:36;21.60;;;13.35;;
49123;SDS011;48506;48.202;16.274;2023-05-16T10:32:04;21.67;;;13.98;;
49123;SDS011;48506;48.202;16.274;2023-05-16T10:34:32;17.23;;;12.45;;
49123;SDS011;48506;48.202;16.274;2023-05-16T10:36:58;25.20;;;14.73;;
49123;SDS011;48506;48.202;16.274;2023-05-16T10:39:25;18.70;;;12.50;;
49123;SDS011;48506;48.202;16.274;2023-05-16T10:41:53;18.75;;;12.82;;
49123;SDS011;48506;48.202;16.274;2023-05-16T10:44:20;24.33;;;15.20;;
49123;SDS011;48506;48.202;16.274;2023-05-16T10:46:46;22.55;;;13.77;;
49123;SDS011;48506;48.202;16.274;2023-05-16T10:49:30;25.63;;;14.82;;
49123;SDS011;48506;48.202;16.274;2023-05-16T10:52:04;26.83;;;12.95;;
49123;SDS011;48506;48.202;16.274;2023-05-16T10:54:33;19.05;;;12.25;;
49123;SDS011;48506;48.202;16.274;2023-05-16T10:57:10;15.30;;;12.30;;
49123;SDS011;48506;48.202;16.274;2023-05-16T10:59:45;20.13;;;12.98;;
49123;SDS011;48506;48.202;16.274;2023-05-16T11:02:23;16.38;;;12.25;;
49123;SDS011;48506;48.202;16.274;2023-05-16T11:04:56;19.42;;;13.60;;
49123;SDS011;48506;48.202;16.274;2023-05-16T11:07:24;21.50;;;14.13;;
49123;SDS011;48506;48.202;16.274;2023-05-16T11:10:02;21.10;;;14.05;;
49123;SDS011;48506;48.202;16.274;2023-05-16T11:15:19;17.80;;;14.52;;
49123;SDS011;48506;48.202;16.274;2023-05-16T11:17:50;19.70;;;12.95;;
49123;SDS011;48506;48.202;16.274;2023-05-16T11:20:29;21.60;;;14.57;;
49123;SDS011;48506;48.202;16.274;2023-05-16T11:25:56;16.70;;;12.73;;
49123;SDS011;48506;48.202;16.274;2023-05-16T11:28:25;18.38;;;13.80;;
49123;SDS011;48506;48.202;16.274;2023-05-16T11:30:53;18.17;;;14.43;;
49123;SDS011;48506;48.202;16.274;2023-05-16T11:33:23;18.25;;;13.38;;
49123;SDS011;48506;48.202;16.274;2023-05-16T11:36:05;23.80;;;15.05;;
49123;SDS011;48506;48.202;16.274;2023-05-16T11:38:32;18.95;;;14.48;;
49123;SDS011;48506;48.202;16.274;2023-05-16T11:41:00;16.15;;;13.45;;
49123;SDS011;48506;48.202;16.274;2023-05-16T11:43:37;17.90;;;12.48;;
49123;SDS011;48506;48.202;16.274;2023-05-16T11:46:11;16.17;;;12.88;;
49123;SDS011;48506;48.202;16.274;2023-05-16T11:48:38;17.05;;;12.88;;
49123;SDS011;48506;48.202;16.274;2023-05-16T11:51:05;18.15;;;13.38;;
49123;SDS011;48506;48.202;16.274;2023-05-16T11:53:32;20.15;;;14.27;;
49123;SDS011;48506;48.202;16.274;2023-05-16T11:55:58;17.45;;;13.18;;
49123;SDS011;48506;48.202;16.274;2023-05-16T11:58:26;21.13;;;13.82;;
49123;SDS011;48506;48.202;16.274;2023-05-16T12:00:53;21.02;;;14.23;;
49123;SDS011;48506;48.202;16.274;2023-05-16T12:03:20;30.95;;;17.20;;
49123;SDS011;48506;48.202;16.274;2023-05-16T12:05:52;21.58;;;13.80;;
49123;SDS011;48506;48.202;16.274;2023-05-16T12:08:20;21.85;;;13.52;;
49123;SDS011;48506;48.202;16.274;2023-05-16T12:10:49;17.67;;;13.80;;
49123;SDS011;48506;48.202;16.274;2023-05-16T12:13:17;16.88;;;13.10;;
49123;SDS011;48506;48.202;16.274;2023-05-16T12:15:47;14.98;;;11.77;;
49123;SDS011;48506;48.202;16.274;2023-05-16T12:18:16;18.15;;;14.07;;
49123;SDS011;48506;48.202;16.274;2023-05-16T12:20:43;18.10;;;13.68;;
49123;SDS011;48506;48.202;16.274;2023-05-16T12:23:12;22.85;;;15.40;;
49123;SDS011;48506;48.202;16.274;2023-05-16T12:25:39;18.35;;;14.02;;
49123;SDS011;48506;48.202;16.274;2023-05-16T12:28:11;18.85;;;14.55;;
49123;SDS011;48506;48.202;16.274;2023-05-16T12:30:41;18.08;;;13.95;;
49123;SDS011;48506;48.202;16.274;2023-05-16T12:33:10;17.73;;;12.70;;
49123;SDS011;48506;48.202;16.274;2023-05-16T12:35:40;17.67;;;12.43;;
49123;SDS011;48506;48.202;16.274;2023-05-16T12:38:08;16.92;;;13.52;;
49123;SDS011;48506;48.202;16.274;2023-05-16T12:40:36;16.38;;;13.07;;
49123;SDS011;48506;48.202;16.274;2023-05-16T12:45:54;18.33;;;13.80;;
49123;SDS011;48506;48.202;16.274;2023-05-16T12:48:22;19.13;;;13.57;;
49123;SDS011;48506;48.202;16.274;2023-05-16T12:50:49;15.77;;;12.55;;
49123;SDS011;48506;48.202;16.274;2023-05-16T12:53:15;16.65;;;12.73;;
49123;SDS011;48506;48.202;16.274;2023-05-16T12:55:42;15.07;;;12.30;;
49123;SDS011;48506;48.202;16.274;2023-05-16T12:58:09;12.82;;;11.20;;
49123;SDS011;48506;48.202;16.274;2023-05-16T13:00:36;14.30;;;11.90;;
49123;SDS011;48506;48.202;16.274;2023-05-16T13:03:06;13.73;;;12.30;;
49123;SDS011;48506;48.202;16.274;2023-05-16T13:05:32;13.40;;;11.85;;
49123;SDS011;48506;48.202;16.274;2023-05-16T13:08:00;12.90;;;10.90;;
49123;SDS011;48506;48.202;16.274;2023-05-16T13:10:28;15.02;;;11.93;;
49123;SDS011;48506;48.202;16.274;2023-05-16T13:12:54;15.85;;;12.48;;
49123;SDS011;48506;48.202;16.274;2023-05-16T13:15:22;15.68;;;12.95;;
49123;SDS011;48506;48.202;16.274;2023-05-16T13:17:49;14.43;;;11.23;;
49123;SDS011;48506;48.202;16.274;2023-05-16T13:20:15;17.85;;;13.07;;
49123;SDS011;48506;48.202;16.274;2023-05-16T13:22:41;14.45;;;12.95;;
49123;SDS011;48506;48.202;16.274;2023-05-16T13:25:08;13.48;;;11.82;;
49123;SDS011;48506;48.202;16.274;2023-05-16T13:27:35;16.52;;;12.35;;
49123;SDS011;48506;48.202;16.274;2023-05-16T13:30:01;14.90;;;11.07;;
49123;SDS011;48506;48.202;16.274;2023-05-16T13:32:31;16.42;;;12.60;;
49123;SDS011;48506;48.202;16.274;2023-05-16T13:34:57;13.98;;;12.07;;
49123;SDS011;48506;48.202;16.274;2023-05-16T13:37:23;15.40;;;12.68;;
49123;SDS011;48506;48.202;16.274;2023-05-16T13:39:49;14.10;;;12.23;;
49123;SDS011;48506;48.202;16.274;2023-05-16T13:42:16;17.17;;;14.25;;
49123;SDS011;48506;48.202;16.274;2023-05-16T13:44:43;14.80;;;12.23;;
49123;SDS011;48506;48.202;16.274;2023-05-16T13:47:09;14.30;;;12.15;;
49123;SDS011;48506;48.202;16.274;2023-05-16T13:49:36;13.63;;;11.13;;
49123;SDS011;48506;48.202;16.274;2023-05-16T13:52:03;16.63;;;13.65;;
49123;SDS011;48506;48.202;16.274;2023-05-16T13:54:31;14.65;;;12.45;;
49123;SDS011;48506;48.202;16.274;2023-05-16T13:56:57;20.13;;;14.52;;
49123;SDS011;48506;48.202;16.274;2023-05-16T13:59:23;18.25;;;13.70;;
49123;SDS011;48506;48.202;16.274;2023-05-16T14:01:49;17.50;;;13.80;;
49123;SDS011;48506;48.202;16.274;2023-05-16T14:04:15;17.45;;;13.73;;
49123;SDS011;48506;48.202;16.274;2023-05-16T14:06:41;16.60;;;14.15;;
49123;SDS011;48506;48.202;16.274;2023-05-16T14:09:07;19.73;;;14.13;;
49123;SDS011;48506;48.202;16.274;2023-05-16T14:11:35;17.08;;;14.32;;
49123;SDS011;48506;48.202;16.274;2023-05-16T14:14:00;17.30;;;14.32;;
49123;SDS011;48506;48.202;16.274;2023-05-16T14:16:27;18.67;;;15.05;;
49123;SDS011;48506;48.202;16.274;2023-05-16T14:18:55;15.80;;;13.32;;
49123;SDS011;48506;48.202;16.274;2023-05-16T14:21:22;22.50;;;16.63;;
49123;SDS011;48506;48.202;16.274;2023-05-16T14:23:49;24.02;;;17.23;;
49123;SDS011;48506;48.202;16.274;2023-05-16T14:26:16;21.48;;;15.80;;
49123;SDS011;48506;48.202;16.274;2023-05-16T14:28:47;20.30;;;16.67;;
49123;SDS011;48506;48.202;16.274;2023-05-16T14:31:13;22.02;;;16.70;;
49123;SDS011;48506;48.202;16.274;2023-05-16T14:33:39;21.63;;;15.82;;
49123;SDS011;48506;48.202;16.274;2023-05-16T14:36:06;19.52;;;15.55;;
49123;SDS011;48506;48.202;16.274;2023-05-16T14:38:33;24.77;;;17.52;;
49123;SDS011;48506;48.202;16.274;2023-05-16T14:41:00;23.40;;;16.58;;
49123;SDS011;48506;48.202;16.274;2023-05-16T14:43:27;22.10;;;16.30;;
49123;SDS011;48506;48.202;16.274;2023-05-16T14:45:55;19.27;;;15.02;;